Time;durP1;ratioP1;P1;durP2;ratioP2;P2;SDS_P1;SDS_P2;PMS_P1;PMS_P2;Temp;Humidity;BMP_temperature;BMP_pressure;BME280_temperature;BME280_humidity;BME280_pressure;Samples;Min_cycle;Max_cycle;Signal;HPM_P1;HPM_P2
2022/10/05 00:02:17;;;;;;;7.60;3.30;;;;;;;9.10;100.00;99532.22;5068709;28;20524;-79
2022/10/05 00:04:44;;;;;;;4.30;3.28;;;;;;;9.10;100.00;99530.34;5069489;28;20055;-79
2022/10/05 00:07:16;;;;;;;6.82;3.10;;;;;;;9.20;100.00;99560.91;5070115;28;20407;-79
2022/10/05 00:09:44;;;;;;;6.47;3.33;;;;;;;9.08;100.00;99543.25;5069575;28;20123;-79
2022/10/05 00:12:14;;;;;;;7.30;4.18;;;;;;;9.06;100.00;99534.41;5067623;28;20049;-79
2022/10/05 00:14:41;;;;;;;8.85;3.13;;;;;;;8.99;100.00;99547.78;5067216;28;20530;-79
2022/10/05 00:17:13;;;;;;;6.03;3.00;;;;;;;8.88;100.00;99539.94;5066218;28;20407;-79
2022/10/05 00:19:39;;;;;;;7.28;3.20;;;;;;;8.70;100.00;99534.63;5068830;28;20040;-79
2022/10/05 00:22:11;;;;;;;7.75;3.60;;;;;;;8.60;100.00;99539.38;5069460;28;20415;-80
2022/10/05 00:24:40;;;;;;;6.20;3.40;;;;;;;8.57;100.00;99528.84;5069116;28;20055;-79
2022/10/05 00:27:16;;;;;;;8.15;3.50;;;;;;;8.80;100.00;99553.50;5056441;28;20048;-80
2022/10/05 00:29:43;;;;;;;4.70;3.03;;;;;;;8.74;100.00;99543.31;5059443;28;20052;-79
2022/10/05 00:32:10;;;;;;;4.93;3.25;;;;;;;8.67;100.00;99548.50;5068945;28;20131;-79
2022/10/05 00:34:37;;;;;;;11.52;3.25;;;;;;;8.37;100.00;99520.94;5069365;28;20406;-79
2022/10/05 00:37:04;;;;;;;5.13;3.53;;;;;;;8.47;100.00;99550.63;5067804;28;20041;-79
2022/10/05 00:39:31;;;;;;;6.20;3.40;;;;;;;8.36;100.00;99518.41;5068531;28;20049;-79
2022/10/05 00:42:14;;;;;;;5.50;3.75;;;;;;;8.41;100.00;99532.28;5068952;28;20048;-79
2022/10/05 00:44:45;;;;;;;5.82;3.85;;;;;;;8.23;100.00;99508.81;5068297;28;20259;-79
2022/10/05 00:47:31;;;;;;;6.72;3.33;;;;;;;8.49;100.00;99533.22;5049723;28;20049;-79
2022/10/05 00:50:28;;;;;;;7.70;3.00;;;;;;;8.14;100.00;99515.22;5069710;28;20414;-79
2022/10/05 00:53:04;;;;;;;4.75;3.00;;;;;;;8.14;100.00;99521.50;5066343;28;20152;-79
2022/10/05 00:55:42;;;;;;;5.07;3.30;;;;;;;8.20;100.00;99530.81;5068334;28;20048;-79
2022/10/05 00:58:20;;;;;;;6.43;2.65;;;;;;;8.18;100.00;99516.59;5056794;28;20483;-79
2022/10/05 01:00:59;;;;;;;5.65;3.05;;;;;;;8.16;100.00;99521.34;5066494;28;20143;-79
2022/10/05 01:03:36;;;;;;;4.68;3.25;;;;;;;8.04;100.00;99528.88;5071014;28;20407;-79
2022/10/05 01:06:14;;;;;;;3.30;2.80;;;;;;;8.20;100.00;99548.94;5073822;28;20052;-79
2022/10/05 01:08:51;;;;;;;5.50;3.30;;;;;;;8.13;100.00;99533.34;5073206;28;20060;-80
2022/10/05 01:11:24;;;;;;;6.50;3.45;;;;;;;8.12;100.00;99534.34;5066989;28;20048;-79
2022/10/05 01:14:02;;;;;;;11.18;4.25;;;;;;;7.98;100.00;99515.97;5071313;28;20053;-79
2022/10/05 01:16:35;;;;;;;7.63;4.35;;;;;;;8.06;100.00;99528.72;5061484;28;20056;-79
2022/10/05 01:19:12;;;;;;;5.60;4.20;;;;;;;8.10;100.00;99524.66;5067616;28;20052;-79
2022/10/05 01:21:49;;;;;;;6.05;3.40;;;;;;;8.07;100.00;99546.63;5072963;28;20048;-79
2022/10/05 01:24:49;;;;;;;8.35;3.58;;;;;;;8.15;100.00;99550.25;5067156;28;20047;-79
2022/10/05 01:27:38;;;;;;;5.28;3.60;;;;;;;7.95;100.00;99527.97;5053414;28;20053;-79
2022/10/05 01:30:08;;;;;;;4.80;2.95;;;;;;;7.97;100.00;99546.75;5072097;28;20045;-79
2022/10/05 01:32:41;;;;;;;7.47;4.00;;;;;;;8.01;100.00;99547.28;5070104;28;20488;-79
2022/10/05 01:35:19;;;;;;;8.85;3.42;;;;;;;7.85;100.00;99539.91;5061486;28;20049;-79
2022/10/05 01:37:58;;;;;;;5.50;3.33;;;;;;;7.65;100.00;99501.34;5067339;28;20048;-79
2022/10/05 01:40:34;;;;;;;6.82;3.35;;;;;;;7.67;100.00;99505.59;5073078;28;20052;-79
2022/10/05 01:43:11;;;;;;;6.22;3.67;;;;;;;7.61;100.00;99526.03;5069625;28;20430;-79
2022/10/05 01:45:52;;;;;;;5.97;2.97;;;;;;;7.47;100.00;99496.84;5073308;28;20051;-79
2022/10/05 01:48:24;;;;;;;5.30;3.55;;;;;;;7.40;100.00;99498.47;5071159;28;20063;-79
2022/10/05 01:51:03;;;;;;;5.78;3.33;;;;;;;7.42;100.00;99505.44;5064516;28;20045;-79
2022/10/05 01:53:44;;;;;;;10.43;4.15;;;;;;;7.39;100.00;99499.47;5070188;28;20059;-79
2022/10/05 01:56:19;;;;;;;5.82;3.75;;;;;;;7.40;100.00;99503.88;5053065;28;20132;-79
2022/10/05 01:58:55;;;;;;;5.25;3.38;;;;;;;7.47;100.00;99517.59;5069459;28;20059;-79
2022/10/05 02:01:30;;;;;;;4.53;3.17;;;;;;;7.37;100.00;99505.03;5071828;28;20062;-79
2022/10/05 02:04:05;;;;;;;7.65;2.90;;;;;;;7.49;100.00;99511.03;5070913;28;20052;-79
2022/10/05 02:06:37;;;;;;;5.43;2.88;;;;;;;7.54;100.00;99522.28;5070793;28;20048;-79
2022/10/05 02:09:08;;;;;;;4.53;2.55;;;;;;;7.51;100.00;99502.78;5064270;28;20054;-79
2022/10/05 02:11:37;;;;;;;5.72;2.78;;;;;;;7.46;100.00;99494.28;5068357;28;20044;-79
2022/10/05 02:14:10;;;;;;;5.40;3.05;;;;;;;7.41;100.00;99481.25;5059191;28;20051;-79
2022/10/05 02:16:40;;;;;;;6.05;2.97;;;;;;;7.36;100.00;99478.13;5059283;28;20056;-79
2022/10/05 02:19:14;;;;;;;5.25;2.60;;;;;;;7.25;100.00;99476.53;5072292;28;20072;-79
2022/10/05 02:21:43;;;;;;;6.93;3.00;;;;;;;7.24;100.00;99472.13;5070785;28;20056;-78
2022/10/05 02:24:18;;;;;;;6.27;3.33;;;;;;;7.25;100.00;99474.66;5057821;28;20041;-79
2022/10/05 02:26:46;;;;;;;5.25;2.42;;;;;;;7.21;100.00;99465.19;5067131;28;20045;-79
2022/10/05 02:29:18;;;;;;;5.95;2.80;;;;;;;7.26;100.00;99480.94;5070871;28;20496;-79
2022/10/05 02:31:50;;;;;;;3.53;2.50;;;;;;;7.19;100.00;99469.88;5069889;28;20053;-78
2022/10/05 02:34:26;;;;;;;9.48;3.08;;;;;;;7.29;100.00;99488.75;5064035;28;20049;-79
2022/10/05 02:37:06;;;;;;;7.50;3.10;;;;;;;7.30;100.00;99490.44;5072195;28;20053;-79
2022/10/05 02:39:36;;;;;;;;;;;;;;;7.23;100.00;99492.06;5068417;28;20055;-78
2022/10/05 02:42:08;;;;;;;3.67;2.28;;;;;;;7.12;100.00;99497.69;5061240;28;19934;-79
2022/10/05 02:44:46;;;;;;;12.32;2.75;;;;;;;7.03;100.00;99492.22;5063283;28;20068;-79
2022/10/05 02:47:20;;;;;;;4.38;3.17;;;;;;;6.97;100.00;99482.03;5064062;28;20051;-79
2022/10/05 02:49:51;;;;;;;5.60;3.63;;;;;;;7.09;100.00;99506.97;5071873;28;20063;-79
2022/10/05 02:52:26;;;;;;;9.10;3.22;;;;;;;7.04;100.00;99515.53;5069359;28;20048;-79
2022/10/05 02:55:03;;;;;;;6.80;3.78;;;;;;;6.93;100.00;99515.78;5068597;28;20045;-79
2022/10/05 02:57:35;;;;;;;5.00;2.92;;;;;;;6.99;100.00;99527.84;5065650;28;20041;-78
2022/10/05 03:00:08;;;;;;;6.03;3.00;;;;;;;6.71;100.00;99496.31;5071695;28;20707;-79
2022/10/05 03:02:41;;;;;;;6.90;4.00;;;;;;;6.72;100.00;99502.53;5070092;28;20050;-79
2022/10/05 03:05:18;;;;;;;5.53;3.42;;;;;;;6.48;100.00;99497.72;5071849;28;20044;-79
2022/10/05 03:07:54;;;;;;;6.53;3.67;;;;;;;6.73;100.00;99515.91;5070992;28;20047;-79
2022/10/05 03:10:28;;;;;;;10.52;3.40;;;;;;;6.47;100.00;99487.91;5071474;28;20052;-79
2022/10/05 03:13:02;;;;;;;9.57;3.53;;;;;;;6.49;100.00;99508.38;5066875;28;20048;-79
2022/10/05 03:15:45;;;;;;;5.68;3.10;;;;;;;6.59;100.00;99516.41;5065141;28;20061;-79
2022/10/05 03:18:24;;;;;;;5.18;3.00;;;;;;;6.51;100.00;99492.00;5065751;28;20044;-79
2022/10/05 03:20:57;;;;;;;5.97;3.47;;;;;;;6.48;100.00;99489.59;5069056;28;20045;-78
2022/10/05 03:23:34;;;;;;;5.38;3.33;;;;;;;6.43;100.00;99494.59;5069187;28;20419;-78
2022/10/05 03:26:21;;;;;;;6.25;3.72;;;;;;;6.51;100.00;99479.34;5070422;28;20059;-78
2022/10/05 03:28:56;;;;;;;8.82;3.33;;;;;;;6.46;100.00;99480.78;5068705;28;20060;-78
2022/10/05 03:31:32;;;;;;;9.15;3.25;;;;;;;6.47;100.00;99479.78;5060176;28;20044;-78
2022/10/05 03:34:02;;;;;;;6.53;3.40;;;;;;;6.35;100.00;99457.53;5070364;28;20052;-78
2022/10/05 03:36:36;;;;;;;14.45;3.38;;;;;;;6.55;100.00;99475.34;5070876;28;20052;-78
2022/10/05 03:39:10;;;;;;;5.95;3.13;;;;;;;6.35;100.00;99449.44;5070937;28;20492;-78
2022/10/05 03:41:43;;;;;;;4.13;3.00;;;;;;;6.38;100.00;99439.19;5067925;28;20062;-78
2022/10/05 03:44:21;;;;;;;5.90;2.95;;;;;;;6.46;100.00;99457.34;5062356;28;20440;-78
2022/10/05 03:47:00;;;;;;;5.65;2.60;;;;;;;6.40;100.00;99438.19;5069760;28;20056;-78
2022/10/05 03:49:36;;;;;;;6.70;3.25;;;;;;;6.42;100.00;99431.63;5056375;28;20059;-78
2022/10/05 03:52:10;;;;;;;4.97;2.90;;;;;;;6.49;100.00;99427.34;5058929;28;20054;-78
2022/10/05 03:54:42;;;;;;;7.40;3.38;;;;;;;6.62;100.00;99437.75;5070633;28;20152;-78
2022/10/05 03:57:13;;;;;;;6.75;3.10;;;;;;;6.52;100.00;99435.13;5067137;28;20074;-78
2022/10/05 03:59:44;;;;;;;6.32;2.95;;;;;;;6.54;100.00;99427.72;5070676;28;20045;-78
2022/10/05 04:02:22;;;;;;;4.82;3.20;;;;;;;6.62;100.00;99445.00;5068997;28;20050;-78
2022/10/05 04:04:53;;;;;;;5.68;3.42;;;;;;;6.69;100.00;99455.06;5061384;28;20072;-78
2022/10/05 04:07:30;;;;;;;5.28;3.50;;;;;;;6.62;100.00;99447.72;5066817;28;20055;-78
2022/10/05 04:10:00;;;;;;;4.82;3.08;;;;;;;6.51;100.00;99436.13;5069820;28;20430;-78
2022/10/05 04:12:32;;;;;;;7.68;3.35;;;;;;;6.61;100.00;99463.09;5062438;28;20053;-78
2022/10/05 04:15:03;;;;;;;5.40;3.67;;;;;;;6.57;100.00;99453.56;5067862;28;20131;-78
2022/10/05 04:17:34;;;;;;;4.22;2.60;;;;;;;6.54;100.00;99457.44;5070000;28;20071;-78
2022/10/05 04:20:03;;;;;;;4.93;3.13;;;;;;;6.53;100.00;99457.56;5069040;28;20071;-77
2022/10/05 04:22:36;;;;;;;6.18;3.88;;;;;;;6.25;100.00;99437.84;5065339;28;20044;-78
2022/10/05 04:25:09;;;;;;;6.32;4.20;;;;;;;6.34;100.00;99451.31;5068809;28;20044;-78
2022/10/05 04:27:41;;;;;;;5.85;4.13;;;;;;;6.41;100.00;99443.44;5057573;28;20045;-77
2022/10/05 04:30:12;;;;;;;7.93;4.03;;;;;;;6.18;100.00;99424.09;5068574;28;20506;-77
2022/10/05 04:32:43;;;;;;;6.40;4.03;;;;;;;6.24;100.00;99425.34;5063825;28;20045;-77
2022/10/05 04:35:41;;;;;;;7.60;3.90;;;;;;;6.42;100.00;99455.09;5062516;28;20055;-77
2022/10/05 04:38:22;;;;;;;7.75;3.50;;;;;;;6.28;100.00;99459.13;5066102;28;20048;-77
2022/10/05 04:41:03;;;;;;;6.97;3.47;;;;;;;6.09;100.00;99433.09;5072817;28;20056;-77
2022/10/05 04:43:41;;;;;;;5.63;3.63;;;;;;;6.26;100.00;99461.97;5067023;28;20059;-77
2022/10/05 04:46:27;;;;;;;7.95;3.28;;;;;;;6.02;100.00;99432.84;5073446;28;20097;-77
2022/10/05 04:49:22;;;;;;;5.20;3.58;;;;;;;6.12;100.00;99470.59;5066068;28;20052;-77
2022/10/05 04:51:59;;;;;;;4.32;3.35;;;;;;;5.88;100.00;99457.59;5073611;28;20669;-77
2022/10/05 04:54:44;;;;;;;4.13;3.20;;;;;;;5.93;100.00;99474.19;5071131;28;20048;-77
2022/10/05 04:57:16;;;;;;;10.32;3.50;;;;;;;5.76;100.00;99462.31;5062733;28;20506;-77
2022/10/05 05:00:03;;;;;;;4.93;3.45;;;;;;;5.72;100.00;99467.16;5070740;28;20048;-77
2022/10/05 05:02:42;;;;;;;5.57;3.30;;;;;;;5.88;100.00;99482.72;5075362;28;20077;-77
2022/10/05 05:05:31;;;;;;;4.95;3.40;;;;;;;5.84;100.00;99470.50;5070303;28;20516;-77
2022/10/05 05:08:12;;;;;;;12.30;3.40;;;;;;;5.97;100.00;99487.25;5071709;28;20045;-77
2022/10/05 05:10:51;;;;;;;4.65;3.15;;;;;;;5.61;100.00;99476.25;5067634;28;20043;-77
2022/10/05 05:14:01;;;;;;;8.35;3.50;;;;;;;5.77;100.00;99483.75;5063588;28;20057;-77
2022/10/05 05:16:34;;;;;;;6.10;3.55;;;;;;;5.59;100.00;99477.41;5063120;28;20048;-77
2022/10/05 05:19:36;;;;;;;6.55;3.55;;;;;;;5.75;100.00;99507.34;5073589;28;20502;-77
2022/10/05 05:22:07;;;;;;;8.73;3.47;;;;;;;5.57;100.00;99482.09;5057913;28;20056;-77
2022/10/05 05:24:42;;;;;;;8.43;4.15;;;;;;;5.54;100.00;99479.69;5072859;28;20205;-77
2022/10/05 05:27:24;;;;;;;7.03;4.10;;;;;;;5.49;100.00;99483.69;5069233;28;20476;-77
2022/10/05 05:30:01;;;;;;;7.78;3.83;;;;;;;5.69;100.00;99494.44;5063934;28;20049;-77
2022/10/05 05:32:39;;;;;;;6.93;4.30;;;;;;;5.71;100.00;99502.38;5070666;28;20055;-77
2022/10/05 05:35:25;;;;;;;9.65;5.35;;;;;;;5.51;100.00;99499.72;5073292;28;20041;-77
2022/10/05 05:38:03;;;;;;;7.13;4.22;;;;;;;5.49;100.00;99512.47;5071824;28;20052;-77
2022/10/05 05:40:34;;;;;;;5.68;4.28;;;;;;;5.67;100.00;99521.56;5070243;28;20075;-77
2022/10/05 05:43:07;;;;;;;4.93;3.75;;;;;;;5.52;100.00;99512.19;5072286;28;20488;-77
2022/10/05 05:45:41;;;;;;;9.02;4.03;;;;;;;5.50;100.00;99508.78;5070260;28;20062;-77
2022/10/05 05:48:16;;;;;;;7.68;4.22;;;;;;;5.48;100.00;99510.78;5060632;28;20076;-77
2022/10/05 05:50:52;;;;;;;8.65;4.25;;;;;;;5.48;100.00;99524.28;5056682;28;20037;-77
2022/10/05 05:53:25;;;;;;;5.75;3.88;;;;;;;5.72;100.00;99545.41;5069050;28;20059;-77
2022/10/05 05:55:58;;;;;;;7.10;3.92;;;;;;;5.59;100.00;99521.41;5070237;28;20044;-77
2022/10/05 05:58:29;;;;;;;7.32;4.53;;;;;;;5.56;100.00;99537.03;5072699;28;20056;-77
2022/10/05 06:01:02;;;;;;;11.18;4.10;;;;;;;5.56;100.00;99524.38;5069209;28;20036;-77
2022/10/05 06:03:37;;;;;;;9.30;3.95;;;;;;;5.79;100.00;99535.69;5051812;28;20049;-77
2022/10/05 06:06:06;;;;;;;5.55;3.80;;;;;;;5.80;100.00;99537.41;5060184;28;20477;-77
2022/10/05 06:08:40;;;;;;;10.60;4.10;;;;;;;6.01;100.00;99544.50;5071998;28;20044;-77
2022/10/05 06:11:12;;;;;;;5.75;3.97;;;;;;;6.01;100.00;99523.75;5070899;28;20306;-77
2022/10/05 06:13:42;;;;;;;6.28;3.97;;;;;;;5.88;100.00;99525.88;5071677;28;20041;-77
2022/10/05 06:16:17;;;;;;;4.78;3.75;;;;;;;5.77;100.00;99510.72;5062506;28;20524;-77
2022/10/05 06:18:48;;;;;;;10.80;3.85;;;;;;;6.04;100.00;99552.31;5070331;28;20051;-77
2022/10/05 06:21:22;;;;;;;6.50;3.92;;;;;;;6.01;100.00;99553.44;5073126;28;20135;-77
2022/10/05 06:23:56;;;;;;;9.43;4.47;;;;;;;6.08;100.00;99547.47;5071208;28;20049;-76
2022/10/05 06:27:00;;;;;;;5.53;3.72;;;;;;;6.16;100.00;99558.38;5065286;28;20052;-77
2022/10/05 06:29:42;;;;;;;5.72;3.72;;;;;;;6.17;100.00;99541.19;5072236;28;20052;-77
2022/10/05 06:32:19;;;;;;;6.00;3.97;;;;;;;6.38;100.00;99562.56;5072846;28;20159;-77
2022/10/05 06:34:57;;;;;;;6.85;3.85;;;;;;;6.40;100.00;99538.09;5073837;28;20547;-77
2022/10/05 06:37:42;;;;;;;8.80;3.35;;;;;;;6.59;100.00;99561.47;5073613;28;20098;-77
2022/10/05 06:40:22;;;;;;;7.72;4.65;;;;;;;6.76;100.00;99557.13;5073842;28;20044;-77
2022/10/05 06:43:04;;;;;;;8.32;4.15;;;;;;;6.66;100.00;99533.72;5073550;28;20825;-77
2022/10/05 06:45:42;;;;;;;6.15;3.97;;;;;;;6.78;100.00;99560.53;5075048;28;20484;-77
2022/10/05 06:48:19;;;;;;;6.65;4.65;;;;;;;6.77;100.00;99566.94;5073767;28;20052;-77
2022/10/05 06:50:51;;;;;;;9.55;5.53;;;;;;;6.77;100.00;99543.47;5074026;28;20131;-77
2022/10/05 06:53:28;;;;;;;12.45;4.15;;;;;;;6.90;100.00;99554.75;5064987;28;20135;-77
2022/10/05 06:56:06;;;;;;;7.80;4.70;;;;;;;6.98;100.00;99548.59;5074518;28;20385;-77
2022/10/05 06:58:45;;;;;;;8.88;4.93;;;;;;;7.09;100.00;99547.50;5073037;28;20484;-77
2022/10/05 07:01:18;;;;;;;5.97;4.43;;;;;;;7.31;100.00;99570.56;5071931;28;20040;-77
2022/10/05 07:04:00;;;;;;;7.57;4.60;;;;;;;7.51;100.00;99576.69;5072645;28;20377;-77
2022/10/05 07:06:34;;;;;;;9.80;5.28;;;;;;;7.61;100.00;99582.00;5073723;28;20051;-77
2022/10/05 07:09:15;;;;;;;6.38;4.40;;;;;;;7.56;100.00;99550.00;5075613;28;20343;-77
2022/10/05 07:12:03;;;;;;;7.45;4.28;;;;;;;7.65;100.00;99544.66;5051456;28;20059;-77
2022/10/05 07:14:43;;;;;;;7.47;4.53;;;;;;;7.81;100.00;99571.84;5051812;28;20063;-77
2022/10/05 07:17:24;;;;;;;11.57;4.68;;;;;;;7.79;100.00;99565.75;5067609;28;20083;-77
2022/10/05 07:19:59;;;;;;;11.60;4.85;;;;;;;7.91;100.00;99579.88;5070500;28;20064;-77
2022/10/05 07:22:45;;;;;;;15.50;5.57;;;;;;;7.89;100.00;99561.09;5070465;28;20053;-77
2022/10/05 07:25:19;;;;;;;10.95;5.55;;;;;;;8.00;100.00;99578.94;5070057;28;20046;-77
2022/10/05 07:27:51;;;;;;;17.27;5.70;;;;;;;8.21;100.00;99592.09;5071197;28;20408;-77
2022/10/05 07:30:18;;;;;;;9.88;5.82;;;;;;;8.16;100.00;99570.09;5071200;28;20511;-77
2022/10/05 07:32:58;;;;;;;11.00;5.45;;;;;;;8.54;100.00;99589.63;5070167;28;20044;-77
2022/10/05 07:38:31;;;;;;;13.20;6.50;;;;;;;8.45;100.00;99564.34;5064404;28;20062;-77
2022/10/05 07:41:05;;;;;;;11.15;5.00;;;;;;;8.55;100.00;99574.22;5069979;28;20044;-77
2022/10/05 07:43:41;;;;;;;16.02;5.88;;;;;;;8.70;100.00;99580.72;5069870;28;20064;-77
2022/10/05 07:46:18;;;;;;;13.88;5.63;;;;;;;8.84;100.00;99588.25;5069554;28;20052;-77
2022/10/05 07:49:02;;;;;;;10.43;4.60;;;;;;;8.91;100.00;99590.28;5070607;28;20413;-77
2022/10/05 07:51:34;;;;;;;8.07;5.20;;;;;;;8.85;100.00;99562.84;5051206;28;20532;-77
2022/10/05 07:54:13;;;;;;;10.45;4.60;;;;;;;9.14;100.00;99596.81;5049192;28;20057;-77
2022/10/05 07:56:42;;;;;;;9.80;4.90;;;;;;;9.17;100.00;99590.22;5051044;28;20059;-77
2022/10/05 07:59:17;;;;;;;7.00;5.28;;;;;;;9.30;100.00;99593.28;5063749;28;20044;-77
2022/10/05 08:01:47;;;;;;;11.50;5.72;;;;;;;9.38;100.00;99582.47;5061964;28;20057;-77
2022/10/05 08:04:18;;;;;;;8.77;4.97;;;;;;;9.48;100.00;99578.75;5069347;28;20075;-77
2022/10/05 08:06:50;;;;;;;11.10;5.10;;;;;;;9.62;100.00;99567.22;5070839;28;20492;-77
2022/10/05 08:09:34;;;;;;;8.30;5.18;;;;;;;9.96;100.00;99576.22;5070542;28;20068;-77
2022/10/05 08:12:16;;;;;;;6.57;4.60;;;;;;;10.07;100.00;99570.41;5070343;28;20049;-77
2022/10/05 08:14:52;;;;;;;8.57;5.32;;;;;;;10.30;100.00;99586.88;5068853;28;20052;-77
2022/10/05 08:17:26;;;;;;;11.25;4.85;;;;;;;10.42;100.00;99555.63;5052999;28;20041;-77
2022/10/05 08:19:59;;;;;;;6.80;4.75;;;;;;;10.71;100.00;99575.91;5067665;28;20048;-77
2022/10/05 08:22:35;;;;;;;8.80;5.07;;;;;;;10.76;100.00;99561.78;5070039;28;20159;-77
2022/10/05 08:25:05;;;;;;;7.43;4.65;;;;;;;11.00;100.00;99573.56;5070653;28;20060;-77
2022/10/05 08:27:40;;;;;;;8.70;5.15;;;;;;;11.09;100.00;99569.78;5061173;28;20063;-77
2022/10/05 08:30:11;;;;;;;10.73;4.88;;;;;;;11.31;100.00;99584.47;5066241;28;20408;-77
2022/10/05 08:32:45;;;;;;;11.65;5.38;;;;;;;11.36;100.00;99565.69;5069730;28;20063;-77
2022/10/05 08:35:23;;;;;;;5.40;4.40;;;;;;;11.37;100.00;99556.53;5070336;28;20057;-77
2022/10/05 08:37:50;;;;;;;6.85;4.78;;;;;;;11.60;100.00;99574.75;5070759;28;20139;-77
2022/10/05 08:40:52;;;;;;;7.18;4.63;;;;;;;11.70;100.00;99564.44;5066808;28;20050;-78
2022/10/05 08:43:35;;;;;;;7.63;4.80;;;;;;;11.79;100.00;99568.81;5054575;28;20053;-77
2022/10/05 08:46:29;;;;;;;8.48;4.70;;;;;;;11.88;100.00;99569.59;5070481;28;20041;-78
2022/10/05 08:49:32;;;;;;;7.20;4.85;;;;;;;12.04;100.00;99574.06;5070469;28;20470;-78
2022/10/05 08:52:25;;;;;;;6.88;4.38;;;;;;;12.09;100.00;99558.00;5059876;28;20053;-78
2022/10/05 08:55:11;;;;;;;7.40;4.65;;;;;;;12.19;100.00;99553.16;5070360;28;20056;-78
2022/10/05 08:58:06;;;;;;;8.50;5.00;;;;;;;12.39;100.00;99556.16;5069315;28;20076;-78
2022/10/05 09:00:48;;;;;;;6.35;4.25;;;;;;;12.50;100.00;99541.22;5064957;28;20056;-78
2022/10/05 09:03:44;;;;;;;5.75;4.03;;;;;;;12.75;100.00;99560.88;5050453;28;20507;-78
2022/10/05 09:06:23;;;;;;;15.73;4.82;;;;;;;12.99;100.00;99564.31;5054352;28;20045;-78
2022/10/05 09:09:19;;;;;;;9.10;5.33;;;;;;;13.10;100.00;99560.25;5065654;28;20496;-78
2022/10/05 09:12:00;;;;;;;8.07;5.03;;;;;;;13.14;100.00;99549.78;5066150;28;20094;-78
2022/10/05 09:14:47;;;;;;;6.40;5.10;;;;;;;13.14;100.00;99528.78;5049511;28;20087;-78
2022/10/05 09:17:31;;;;;;;7.82;4.68;;;;;;;13.39;100.00;99537.50;5049953;28;20499;-78
2022/10/05 09:20:29;;;;;;;9.25;4.35;;;;;;;13.43;100.00;99525.16;5049819;28;20518;-78
2022/10/05 09:23:04;;;;;;;12.68;4.82;;;;;;;13.49;100.00;99518.06;5053039;28;20546;-78
2022/10/05 09:25:42;;;;;;;15.95;7.68;;;;;;;13.59;100.00;99518.59;5073297;28;20044;-78
2022/10/05 09:28:23;;;;;;;5.97;4.25;;;;;;;13.87;100.00;99547.00;5067926;28;20492;-78
2022/10/05 09:30:58;;;;;;;6.97;4.68;;;;;;;13.95;100.00;99538.63;5062306;28;20053;-78
2022/10/05 09:34:03;;;;;;;8.90;4.20;;;;;;;14.03;100.00;99523.97;5072964;28;20052;-78
2022/10/05 09:37:07;;;;;;;6.43;4.03;;;;;;;14.12;100.00;99520.03;5073416;28;20134;-78
2022/10/05 09:39:55;;;;;;;6.97;4.13;;;;;;;14.38;100.00;99535.81;5073655;28;20488;-78
2022/10/05 09:42:45;;;;;;;5.07;3.80;;;;;;;14.52;100.00;99531.25;5070943;28;20102;-78
2022/10/05 09:45:41;;;;;;;5.85;3.65;;;;;;;14.59;100.00;99525.81;5060153;28;20491;-78
2022/10/05 09:48:40;;;;;;;6.70;4.55;;;;;;;14.58;100.00;99516.75;5053437;28;20224;-78
2022/10/05 09:51:50;;;;;;;5.97;3.88;;;;;;;14.85;100.00;99522.41;5053067;28;20484;-78
2022/10/05 09:54:46;;;;;;;7.97;3.75;;;;;;;14.83;100.00;99500.72;5051247;28;20511;-78
2022/10/05 09:57:48;;;;;;;6.13;3.58;;;;;;;15.02;100.00;99520.13;5068034;28;20066;-78
2022/10/05 10:00:30;;;;;;;6.07;3.55;;;;;;;15.03;100.00;99494.47;5059868;28;20048;-79
2022/10/05 10:03:27;;;;;;;4.75;3.25;;;;;;;15.14;100.00;99490.28;5072491;28;20044;-79
2022/10/05 10:06:13;;;;;;;10.65;3.60;;;;;;;15.45;100.00;99510.78;5069171;28;20048;-78
2022/10/05 10:08:56;;;;;;;3.90;2.97;;;;;;;15.59;100.00;99504.25;5072372;28;20049;-79
2022/10/05 10:11:41;;;;;;;5.05;2.83;;;;;;;15.58;95.33;99492.47;5066577;28;20049;-79
2022/10/05 10:14:43;;;;;;;6.53;2.85;;;;;;;15.71;97.56;99494.34;5070775;28;20045;-78
2022/10/05 10:17:31;;;;;;;3.15;2.72;;;;;;;15.83;98.21;99497.34;5030095;28;20048;-79
2022/10/05 10:20:19;;;;;;;6.10;3.13;;;;;;;15.97;98.63;99498.16;5072650;28;20044;-78
2022/10/05 10:23:05;;;;;;;2.75;2.40;;;;;;;15.94;95.01;99473.91;5072035;28;20055;-78
2022/10/05 10:26:07;;;;;;;5.22;2.63;;;;;;;16.20;92.03;99496.88;5071491;28;20078;-79
2022/10/05 10:29:15;;;;;;;3.83;2.60;;;;;;;16.11;93.66;99471.59;5018425;28;20049;-78
2022/10/05 10:31:55;;;;;;;2.75;2.45;;;;;;;16.38;94.26;99486.09;5056731;28;20071;-78
2022/10/05 10:34:41;;;;;;;3.17;1.90;;;;;;;16.44;91.03;99476.16;5071331;28;20151;-78
2022/10/05 10:37:33;;;;;;;2.80;1.95;;;;;;;16.41;88.25;99465.59;5071837;28;20056;-79
2022/10/05 10:40:19;;;;;;;5.55;2.30;;;;;;;16.60;89.70;99475.66;5070552;28;20048;-78
2022/10/05 10:42:58;;;;;;;3.90;2.20;;;;;;;16.61;88.88;99458.13;5071433;28;20102;-79
2022/10/05 10:45:44;;;;;;;2.03;1.80;;;;;;;16.88;85.94;99474.53;5072224;28;20116;-78
2022/10/05 10:48:32;;;;;;;3.95;2.10;;;;;;;17.00;84.35;99469.19;5069995;28;20041;-79
2022/10/05 10:51:18;;;;;;;4.10;2.15;;;;;;;17.10;85.03;99458.59;5071918;28;20273;-79
2022/10/05 10:54:19;;;;;;;1.77;1.65;;;;;;;17.17;82.23;99464.03;5071089;28;20057;-79
2022/10/05 10:57:03;;;;;;;2.40;1.90;;;;;;;17.29;83.83;99440.25;5051960;28;20060;-79
2022/10/05 11:00:06;;;;;;;6.60;1.55;;;;;;;17.49;83.04;99459.38;5051771;28;20059;-79
2022/10/05 11:03:10;;;;;;;6.85;2.05;;;;;;;17.58;81.14;99457.16;5064949;28;20079;-79
2022/10/05 11:06:18;;;;;;;5.38;2.08;;;;;;;17.56;82.35;99429.06;5022751;28;20475;-79
2022/10/05 11:09:08;;;;;;;3.65;1.35;;;;;;;17.66;77.25;99431.34;5046902;28;20057;-79
2022/10/05 11:12:11;;;;;;;2.75;1.70;;;;;;;17.74;78.74;99417.28;5071073;28;20132;-79
2022/10/05 11:14:59;;;;;;;2.17;1.75;;;;;;;17.90;79.00;99418.66;5070018;28;20074;-79
2022/10/05 11:17:36;;;;;;;3.45;1.70;;;;;;;17.96;75.81;99420.50;5070541;28;20052;-79
2022/10/05 11:20:42;;;;;;;9.25;1.95;;;;;;;18.18;78.94;99436.56;5052345;28;20055;-79
2022/10/05 11:23:37;;;;;;;4.97;1.45;;;;;;;18.35;75.90;99423.91;5045491;28;20057;-79
2022/10/05 11:26:23;;;;;;;9.90;1.70;;;;;;;18.50;74.69;99429.00;5064216;28;20053;-78
2022/10/05 11:29:11;;;;;;;4.05;1.50;;;;;;;18.60;75.14;99408.34;5070623;28;20060;-79
2022/10/05 11:32:08;;;;;;;3.42;1.40;;;;;;;18.82;74.70;99416.94;5061650;28;20053;-79
2022/10/05 11:35:13;;;;;;;4.53;1.40;;;;;;;18.99;72.84;99412.50;5066768;28;20044;-79
2022/10/05 11:38:08;;;;;;;3.22;1.40;;;;;;;19.11;71.78;99420.81;5071208;28;20044;-79
2022/10/05 11:41:14;;;;;;;3.28;1.63;;;;;;;19.10;72.34;99386.91;5070839;28;20388;-79
2022/10/05 11:44:00;;;;;;;3.15;1.30;;;;;;;19.35;67.95;99410.69;5070031;28;20380;-79
2022/10/05 11:46:34;;;;;;;3.83;1.40;;;;;;;19.48;69.31;99408.78;5070348;28;20056;-79
2022/10/05 11:49:22;;;;;;;6.78;1.50;;;;;;;19.50;67.66;99407.47;5069892;28;20048;-79
2022/10/05 11:51:58;;;;;;;4.55;1.85;;;;;;;19.55;65.02;99407.59;5066744;28;20107;-79
2022/10/05 11:54:46;;;;;;;3.25;1.00;;;;;;;19.66;66.46;99394.06;5050121;28;20049;-79
2022/10/05 11:57:18;;;;;;;1.88;1.30;;;;;;;19.64;67.21;99380.50;5060141;28;20512;-79
2022/10/05 11:59:56;;;;;;;3.08;1.55;;;;;;;19.68;65.79;99390.00;5070771;28;20048;-79
2022/10/05 12:02:41;;;;;;;3.72;1.60;;;;;;;19.72;65.54;99368.28;5069684;28;20106;-79
2022/10/05 12:05:17;;;;;;;4.38;1.50;;;;;;;19.78;70.95;99376.47;5070853;28;20055;-79
2022/10/05 12:07:51;;;;;;;1.70;1.40;;;;;;;19.93;68.12;99392.53;5070752;28;20040;-79
2022/10/05 12:10:31;;;;;;;5.35;1.45;;;;;;;20.05;69.00;99383.41;5070158;28;20139;-79
2022/10/05 12:13:18;;;;;;;4.45;1.30;;;;;;;20.18;67.88;99385.91;5069018;28;20495;-79
2022/10/05 12:15:52;;;;;;;4.38;1.17;;;;;;;20.35;65.69;99380.47;5061360;28;20052;-79
2022/10/05 12:18:38;;;;;;;4.35;1.13;;;;;;;20.60;65.79;99387.59;5070335;28;20052;-79
2022/10/05 12:21:11;;;;;;;2.15;1.35;;;;;;;20.68;66.62;99370.66;5070616;28;20087;-79
2022/10/05 12:23:42;;;;;;;3.45;1.40;;;;;;;20.81;65.36;99383.34;5070166;28;20123;-79
2022/10/05 12:26:14;;;;;;;3.55;1.60;;;;;;;20.69;63.03;99370.41;5069080;28;20041;-79
2022/10/05 12:28:47;;;;;;;3.05;1.38;;;;;;;20.72;63.12;99363.56;5066512;28;20052;-79
2022/10/05 12:31:22;;;;;;;1.52;1.20;;;;;;;20.85;64.50;99368.78;5069398;28;20476;-79
2022/10/05 12:33:57;;;;;;;5.85;1.60;;;;;;;20.71;65.28;99350.00;5069940;28;20052;-79